sensor_id;sensor_type;location;lat;lon;timestamp;temperature;humidity
546;DHT22;259;53.304;9.816;2023-05-20T00:00:24;17.30;69.50
546;DHT22;259;53.304;9.816;2023-05-20T00:02:50;17.30;69.50
546;DHT22;259;53.304;9.816;2023-05-20T00:05:16;17.30;69.50
546;DHT22;259;53.304;9.816;2023-05-20T00:07:41;17.30;69.50
546;DHT22;259;53.304;9.816;2023-05-20T00:10:07;17.30;69.50
546;DHT22;259;53.304;9.816;2023-05-20T00:12:33;17.30;69.50
546;DHT22;259;53.304;9.816;2023-05-20T00:15:02;17.30;69.50
546;DHT22;259;53.304;9.816;2023-05-20T00:17:27;17.30;69.50
546;DHT22;259;53.304;9.816;2023-05-20T00:19:53;17.30;69.50
546;DHT22;259;53.304;9.816;2023-05-20T00:22:19;17.20;69.40
546;DHT22;259;53.304;9.816;2023-05-20T00:24:45;17.20;69.20
546;DHT22;259;53.304;9.816;2023-05-20T00:27:11;17.20;69.10
546;DHT22;259;53.304;9.816;2023-05-20T00:29:36;17.20;69.20
546;DHT22;259;53.304;9.816;2023-05-20T00:32:02;17.20;69.30
546;DHT22;259;53.304;9.816;2023-05-20T00:34:28;17.20;69.30
546;DHT22;259;53.304;9.816;2023-05-20T00:36:53;17.20;69.30
546;DHT22;259;53.304;9.816;2023-05-20T00:39:19;17.20;69.30
546;DHT22;259;53.304;9.816;2023-05-20T00:41:45;17.20;69.40
546;DHT22;259;53.304;9.816;2023-05-20T00:44:10;17.20;69.40
546;DHT22;259;53.304;9.816;2023-05-20T00:46:36;17.10;69.40
546;DHT22;259;53.304;9.816;2023-05-20T00:49:02;17.10;69.30
546;DHT22;259;53.304;9.816;2023-05-20T00:51:29;17.10;69.40
546;DHT22;259;53.304;9.816;2023-05-20T00:53:55;17.10;69.40
546;DHT22;259;53.304;9.816;2023-05-20T00:56:21;17.10;69.40
546;DHT22;259;53.304;9.816;2023-05-20T00:58:48;17.10;69.40
546;DHT22;259;53.304;9.816;2023-05-20T01:01:14;17.00;69.30
546;DHT22;259;53.304;9.816;2023-05-20T01:03:40;17.10;69.50
546;DHT22;259;53.304;9.816;2023-05-20T01:06:06;17.10;69.50
546;DHT22;259;53.304;9.816;2023-05-20T01:08:32;17.00;69.40
546;DHT22;259;53.304;9.816;2023-05-20T01:11:25;17.00;69.40
546;DHT22;259;53.304;9.816;2023-05-20T01:14:00;17.00;70.20
546;DHT22;259;53.304;9.816;2023-05-20T01:16:29;17.00;69.40
546;DHT22;259;53.304;9.816;2023-05-20T01:18:58;17.00;69.40
546;DHT22;259;53.304;9.816;2023-05-20T01:21:27;17.00;69.50
546;DHT22;259;53.304;9.816;2023-05-20T01:23:55;17.00;69.40
546;DHT22;259;53.304;9.816;2023-05-20T01:26:20;17.00;69.40
546;DHT22;259;53.304;9.816;2023-05-20T01:28:51;16.90;69.40
546;DHT22;259;53.304;9.816;2023-05-20T01:31:24;16.90;69.30
546;DHT22;259;53.304;9.816;2023-05-20T01:33:55;16.90;69.40
546;DHT22;259;53.304;9.816;2023-05-20T01:36:24;16.90;69.30
546;DHT22;259;53.304;9.816;2023-05-20T01:38:52;16.90;69.40
546;DHT22;259;53.304;9.816;2023-05-20T01:41:19;16.90;69.40
546;DHT22;259;53.304;9.816;2023-05-20T01:43:46;16.90;69.30
546;DHT22;259;53.304;9.816;2023-05-20T01:46:12;16.80;69.20
546;DHT22;259;53.304;9.816;2023-05-20T01:48:37;16.90;69.30
546;DHT22;259;53.304;9.816;2023-05-20T01:51:03;16.90;69.20
546;DHT22;259;53.304;9.816;2023-05-20T01:53:29;16.90;69.40
546;DHT22;259;53.304;9.816;2023-05-20T01:55:54;16.80;69.20
546;DHT22;259;53.304;9.816;2023-05-20T01:58:20;16.80;69.30
546;DHT22;259;53.304;9.816;2023-05-20T02:00:46;16.80;69.20
546;DHT22;259;53.304;9.816;2023-05-20T02:03:11;16.80;69.20
546;DHT22;259;53.304;9.816;2023-05-20T02:05:37;16.80;69.20
546;DHT22;259;53.304;9.816;2023-05-20T02:08:03;16.80;69.20
546;DHT22;259;53.304;9.816;2023-05-20T02:10:29;16.70;69.10
546;DHT22;259;53.304;9.816;2023-05-20T02:12:54;16.80;69.30
546;DHT22;259;53.304;9.816;2023-05-20T02:15:20;16.70;69.10
546;DHT22;259;53.304;9.816;2023-05-20T02:17:46;16.70;69.10
546;DHT22;259;53.304;9.816;2023-05-20T02:20:12;16.70;69.00
546;DHT22;259;53.304;9.816;2023-05-20T02:22:38;16.70;69.00
546;DHT22;259;53.304;9.816;2023-05-20T02:25:04;16.70;69.00
546;DHT22;259;53.304;9.816;2023-05-20T02:27:30;16.70;69.90
546;DHT22;259;53.304;9.816;2023-05-20T02:29:57;16.70;69.00
546;DHT22;259;53.304;9.816;2023-05-20T02:32:22;16.70;69.10
546;DHT22;259;53.304;9.816;2023-05-20T02:34:53;16.60;68.90
546;DHT22;259;53.304;9.816;2023-05-20T02:37:19;16.60;69.20
546;DHT22;259;53.304;9.816;2023-05-20T02:39:45;16.60;68.90
546;DHT22;259;53.304;9.816;2023-05-20T02:42:11;16.60;69.00
546;DHT22;259;53.304;9.816;2023-05-20T02:44:36;16.60;69.00
546;DHT22;259;53.304;9.816;2023-05-20T02:47:02;16.60;69.00
546;DHT22;259;53.304;9.816;2023-05-20T02:49:28;16.60;69.10
546;DHT22;259;53.304;9.816;2023-05-20T02:51:53;16.60;69.10
546;DHT22;259;53.304;9.816;2023-05-20T02:54:20;16.60;69.00
546;DHT22;259;53.304;9.816;2023-05-20T02:56:45;16.60;69.10
546;DHT22;259;53.304;9.816;2023-05-20T02:59:11;16.60;69.20
546;DHT22;259;53.304;9.816;2023-05-20T03:01:36;16.50;69.10
546;DHT22;259;53.304;9.816;2023-05-20T03:04:04;16.50;69.10
546;DHT22;259;53.304;9.816;2023-05-20T03:06:30;16.50;69.00
546;DHT22;259;53.304;9.816;2023-05-20T03:08:56;16.50;69.10
546;DHT22;259;53.304;9.816;2023-05-20T03:11:23;16.50;69.80
546;DHT22;259;53.304;9.816;2023-05-20T03:13:48;16.50;69.10
546;DHT22;259;53.304;9.816;2023-05-20T03:16:17;16.50;69.10
546;DHT22;259;53.304;9.816;2023-05-20T03:18:43;16.50;69.10
546;DHT22;259;53.304;9.816;2023-05-20T03:21:08;16.40;68.90
546;DHT22;259;53.304;9.816;2023-05-20T03:23:34;16.40;68.90
546;DHT22;259;53.304;9.816;2023-05-20T03:26:00;16.40;68.90
546;DHT22;259;53.304;9.816;2023-05-20T03:28:26;16.40;68.90
546;DHT22;259;53.304;9.816;2023-05-20T03:30:51;16.40;68.90
546;DHT22;259;53.304;9.816;2023-05-20T03:33:17;16.40;68.80
546;DHT22;259;53.304;9.816;2023-05-20T03:35:43;16.40;68.90
546;DHT22;259;53.304;9.816;2023-05-20T03:38:09;16.40;68.90
546;DHT22;259;53.304;9.816;2023-05-20T03:40:34;16.40;68.90
546;DHT22;259;53.304;9.816;2023-05-20T03:43:00;16.30;68.70
546;DHT22;259;53.304;9.816;2023-05-20T03:45:26;16.30;68.80
546;DHT22;259;53.304;9.816;2023-05-20T03:47:51;16.30;68.70
546;DHT22;259;53.304;9.816;2023-05-20T03:50:17;16.30;68.80
546;DHT22;259;53.304;9.816;2023-05-20T03:52:43;16.30;68.70
546;DHT22;259;53.304;9.816;2023-05-20T03:55:09;16.30;68.90
546;DHT22;259;53.304;9.816;2023-05-20T03:57:35;16.30;68.80
546;DHT22;259;53.304;9.816;2023-05-20T04:00:01;16.30;68.80
546;DHT22;259;53.304;9.816;2023-05-20T04:02:30;16.30;68.80
546;DHT22;259;53.304;9.816;2023-05-20T04:04:55;16.30;68.70
546;DHT22;259;53.304;9.816;2023-05-20T04:07:22;16.20;68.60
546;DHT22;259;53.304;9.816;2023-05-20T04:09:48;16.20;68.60
546;DHT22;259;53.304;9.816;2023-05-20T04:12:13;16.20;68.60
546;DHT22;259;53.304;9.816;2023-05-20T04:14:39;16.20;68.70
546;DHT22;259;53.304;9.816;2023-05-20T04:17:06;16.20;68.70
546;DHT22;259;53.304;9.816;2023-05-20T04:19:32;16.20;68.60
546;DHT22;259;53.304;9.816;2023-05-20T04:21:58;16.20;68.70
546;DHT22;259;53.304;9.816;2023-05-20T04:24:24;16.20;68.70
546;DHT22;259;53.304;9.816;2023-05-20T04:26:51;16.20;68.80
546;DHT22;259;53.304;9.816;2023-05-20T04:29:18;16.10;69.30
546;DHT22;259;53.304;9.816;2023-05-20T04:31:46;16.10;68.60
546;DHT22;259;53.304;9.816;2023-05-20T04:34:13;16.10;68.60
546;DHT22;259;53.304;9.816;2023-05-20T04:36:39;16.10;68.60
546;DHT22;259;53.304;9.816;2023-05-20T04:39:05;16.10;68.60
546;DHT22;259;53.304;9.816;2023-05-20T04:41:32;16.10;68.50
546;DHT22;259;53.304;9.816;2023-05-20T04:43:58;16.10;68.60
546;DHT22;259;53.304;9.816;2023-05-20T04:46:25;16.10;68.60
546;DHT22;259;53.304;9.816;2023-05-20T04:48:51;16.10;68.60
546;DHT22;259;53.304;9.816;2023-05-20T04:51:18;16.10;68.60
546;DHT22;259;53.304;9.816;2023-05-20T04:53:44;16.10;68.50
546;DHT22;259;53.304;9.816;2023-05-20T04:56:10;16.10;68.70
546;DHT22;259;53.304;9.816;2023-05-20T04:58:36;16.10;68.70
546;DHT22;259;53.304;9.816;2023-05-20T05:01:02;16.10;68.80
546;DHT22;259;53.304;9.816;2023-05-20T05:03:28;16.10;68.80
546;DHT22;259;53.304;9.816;2023-05-20T05:05:57;16.10;68.80
546;DHT22;259;53.304;9.816;2023-05-20T05:08:23;16.10;69.50
546;DHT22;259;53.304;9.816;2023-05-20T05:10:50;16.00;68.70
546;DHT22;259;53.304;9.816;2023-05-20T05:13:16;16.00;68.80
546;DHT22;259;53.304;9.816;2023-05-20T05:15:41;16.00;68.70
546;DHT22;259;53.304;9.816;2023-05-20T05:18:07;16.00;68.80
546;DHT22;259;53.304;9.816;2023-05-20T05:20:33;16.00;68.70
546;DHT22;259;53.304;9.816;2023-05-20T05:22:59;16.00;68.60
546;DHT22;259;53.304;9.816;2023-05-20T05:25:25;16.00;68.80
546;DHT22;259;53.304;9.816;2023-05-20T05:27:50;16.00;68.80
546;DHT22;259;53.304;9.816;2023-05-20T05:30:16;16.00;68.80
546;DHT22;259;53.304;9.816;2023-05-20T05:32:42;16.00;68.90
546;DHT22;259;53.304;9.816;2023-05-20T05:35:08;16.00;68.80
546;DHT22;259;53.304;9.816;2023-05-20T05:37:34;15.90;69.50
546;DHT22;259;53.304;9.816;2023-05-20T05:40:00;15.90;68.70
546;DHT22;259;53.304;9.816;2023-05-20T05:42:25;15.90;68.70
546;DHT22;259;53.304;9.816;2023-05-20T05:44:51;15.90;68.80
546;DHT22;259;53.304;9.816;2023-05-20T05:47:17;15.90;68.80
546;DHT22;259;53.304;9.816;2023-05-20T05:49:43;15.90;68.80
546;DHT22;259;53.304;9.816;2023-05-20T05:52:09;15.90;68.90
546;DHT22;259;53.304;9.816;2023-05-20T05:54:34;15.90;68.80
546;DHT22;259;53.304;9.816;2023-05-20T05:57:00;15.90;68.80
546;DHT22;259;53.304;9.816;2023-05-20T05:59:26;15.90;68.90
546;DHT22;259;53.304;9.816;2023-05-20T06:01:51;15.90;68.90
546;DHT22;259;53.304;9.816;2023-05-20T06:04:17;15.90;68.90
546;DHT22;259;53.304;9.816;2023-05-20T06:06:43;15.80;68.90
546;DHT22;259;53.304;9.816;2023-05-20T06:09:08;15.80;68.90
546;DHT22;259;53.304;9.816;2023-05-20T06:11:34;15.80;68.90
546;DHT22;259;53.304;9.816;2023-05-20T06:14:00;15.80;69.00
546;DHT22;259;53.304;9.816;2023-05-20T06:16:26;15.80;69.00
546;DHT22;259;53.304;9.816;2023-05-20T06:18:52;15.80;69.00
546;DHT22;259;53.304;9.816;2023-05-20T06:21:21;15.80;69.00
546;DHT22;259;53.304;9.816;2023-05-20T06:23:48;15.80;69.00
546;DHT22;259;53.304;9.816;2023-05-20T06:26:13;15.80;69.00
546;DHT22;259;53.304;9.816;2023-05-20T06:28:39;15.80;69.10
546;DHT22;259;53.304;9.816;2023-05-20T06:31:05;15.80;69.00
546;DHT22;259;53.304;9.816;2023-05-20T06:33:31;15.80;69.00
546;DHT22;259;53.304;9.816;2023-05-20T06:35:57;15.80;69.00
546;DHT22;259;53.304;9.816;2023-05-20T06:38:23;15.80;69.10
546;DHT22;259;53.304;9.816;2023-05-20T06:40:49;15.80;68.90
546;DHT22;259;53.304;9.816;2023-05-20T06:43:15;15.80;68.90
546;DHT22;259;53.304;9.816;2023-05-20T06:45:41;15.80;69.00
546;DHT22;259;53.304;9.816;2023-05-20T06:48:08;15.80;69.00
546;DHT22;259;53.304;9.816;2023-05-20T06:50:34;15.80;69.50
546;DHT22;259;53.304;9.816;2023-05-20T06:53:00;15.80;69.70
546;DHT22;259;53.304;9.816;2023-05-20T06:55:26;15.80;69.50
546;DHT22;259;53.304;9.816;2023-05-20T06:57:52;15.80;69.30
546;DHT22;259;53.304;9.816;2023-05-20T07:00:18;15.70;69.30
546;DHT22;259;53.304;9.816;2023-05-20T07:02:44;15.80;69.30
546;DHT22;259;53.304;9.816;2023-05-20T07:05:10;15.70;69.30
546;DHT22;259;53.304;9.816;2023-05-20T07:07:36;15.70;69.50
546;DHT22;259;53.304;9.816;2023-05-20T07:10:02;15.70;69.60
546;DHT22;259;53.304;9.816;2023-05-20T07:12:30;15.70;69.80
546;DHT22;259;53.304;9.816;2023-05-20T07:14:56;15.70;69.80
546;DHT22;259;53.304;9.816;2023-05-20T07:17:23;15.70;69.90
546;DHT22;259;53.304;9.816;2023-05-20T07:19:48;15.70;69.90
546;DHT22;259;53.304;9.816;2023-05-20T07:22:14;15.70;69.90
546;DHT22;259;53.304;9.816;2023-05-20T07:24:40;15.70;69.90
546;DHT22;259;53.304;9.816;2023-05-20T07:27:06;15.70;69.90
546;DHT22;259;53.304;9.816;2023-05-20T07:29:33;15.70;69.90
546;DHT22;259;53.304;9.816;2023-05-20T07:32:00;15.70;69.90
546;DHT22;259;53.304;9.816;2023-05-20T07:34:25;15.70;69.80
546;DHT22;259;53.304;9.816;2023-05-20T07:36:51;15.70;69.80
546;DHT22;259;53.304;9.816;2023-05-20T07:39:17;15.70;69.90
546;DHT22;259;53.304;9.816;2023-05-20T07:41:43;15.70;70.00
546;DHT22;259;53.304;9.816;2023-05-20T07:44:09;15.70;70.00
546;DHT22;259;53.304;9.816;2023-05-20T07:46:42;15.70;69.90
546;DHT22;259;53.304;9.816;2023-05-20T07:49:07;15.70;70.00
546;DHT22;259;53.304;9.816;2023-05-20T07:51:33;15.70;70.00
546;DHT22;259;53.304;9.816;2023-05-20T07:53:59;15.70;70.00
546;DHT22;259;53.304;9.816;2023-05-20T07:56:25;15.70;70.70
546;DHT22;259;53.304;9.816;2023-05-20T07:58:55;15.70;70.00
546;DHT22;259;53.304;9.816;2023-05-20T08:01:26;15.70;69.90
546;DHT22;259;53.304;9.816;2023-05-20T08:03:52;15.80;70.40
546;DHT22;259;53.304;9.816;2023-05-20T08:06:18;15.80;69.60
546;DHT22;259;53.304;9.816;2023-05-20T08:08:50;15.80;69.20
546;DHT22;259;53.304;9.816;2023-05-20T08:11:19;15.80;70.10
546;DHT22;259;53.304;9.816;2023-05-20T08:13:46;15.80;69.40
546;DHT22;259;53.304;9.816;2023-05-20T08:16:12;15.80;69.50
546;DHT22;259;53.304;9.816;2023-05-20T08:18:38;15.80;69.60
546;DHT22;259;53.304;9.816;2023-05-20T08:21:05;15.80;69.80
546;DHT22;259;53.304;9.816;2023-05-20T08:23:34;15.80;69.60
546;DHT22;259;53.304;9.816;2023-05-20T08:26:00;15.80;69.60
546;DHT22;259;53.304;9.816;2023-05-20T08:28:28;15.80;69.60
546;DHT22;259;53.304;9.816;2023-05-20T08:30:54;15.80;69.60
546;DHT22;259;53.304;9.816;2023-05-20T08:33:20;15.80;69.60
546;DHT22;259;53.304;9.816;2023-05-20T08:35:47;15.80;69.60
546;DHT22;259;53.304;9.816;2023-05-20T08:38:13;15.90;69.60
546;DHT22;259;53.304;9.816;2023-05-20T08:40:38;16.00;69.50
546;DHT22;259;53.304;9.816;2023-05-20T08:43:04;16.00;69.20
546;DHT22;259;53.304;9.816;2023-05-20T08:45:32;16.00;69.10
546;DHT22;259;53.304;9.816;2023-05-20T08:47:59;16.00;69.10
546;DHT22;259;53.304;9.816;2023-05-20T08:50:26;16.00;69.20
546;DHT22;259;53.304;9.816;2023-05-20T08:52:52;16.00;69.20
546;DHT22;259;53.304;9.816;2023-05-20T08:55:24;16.00;69.10
546;DHT22;259;53.304;9.816;2023-05-20T08:57:54;16.00;69.80
546;DHT22;259;53.304;9.816;2023-05-20T09:00:21;16.00;69.00
546;DHT22;259;53.304;9.816;2023-05-20T09:02:53;16.00;69.10
546;DHT22;259;53.304;9.816;2023-05-20T09:05:20;16.00;69.10
546;DHT22;259;53.304;9.816;2023-05-20T09:07:46;16.00;69.90
546;DHT22;259;53.304;9.816;2023-05-20T09:10:12;16.00;69.30
546;DHT22;259;53.304;9.816;2023-05-20T09:12:38;16.00;69.30
546;DHT22;259;53.304;9.816;2023-05-20T09:15:04;16.10;69.30
546;DHT22;259;53.304;9.816;2023-05-20T09:17:31;16.10;69.10
546;DHT22;259;53.304;9.816;2023-05-20T09:20:00;16.10;69.00
546;DHT22;259;53.304;9.816;2023-05-20T09:22:27;16.20;69.10
546;DHT22;259;53.304;9.816;2023-05-20T09:24:53;16.20;69.00
546;DHT22;259;53.304;9.816;2023-05-20T09:27:20;16.20;69.00
546;DHT22;259;53.304;9.816;2023-05-20T09:29:49;16.20;69.10
546;DHT22;259;53.304;9.816;2023-05-20T09:32:16;16.10;69.00
546;DHT22;259;53.304;9.816;2023-05-20T09:34:42;16.10;69.10
546;DHT22;259;53.304;9.816;2023-05-20T09:37:10;16.10;69.10
546;DHT22;259;53.304;9.816;2023-05-20T09:39:45;16.10;69.20
546;DHT22;259;53.304;9.816;2023-05-20T09:42:22;16.10;69.30
546;DHT22;259;53.304;9.816;2023-05-20T09:44:52;16.10;69.30
546;DHT22;259;53.304;9.816;2023-05-20T09:47:18;16.10;69.30
546;DHT22;259;53.304;9.816;2023-05-20T09:49:47;16.10;69.40
546;DHT22;259;53.304;9.816;2023-05-20T09:52:14;16.10;69.80
546;DHT22;259;53.304;9.816;2023-05-20T09:54:42;16.10;69.50
546;DHT22;259;53.304;9.816;2023-05-20T09:57:09;16.10;69.50
546;DHT22;259;53.304;9.816;2023-05-20T09:59:36;16.10;69.50
546;DHT22;259;53.304;9.816;2023-05-20T10:02:04;16.10;69.50
546;DHT22;259;53.304;9.816;2023-05-20T10:04:32;16.10;69.50
546;DHT22;259;53.304;9.816;2023-05-20T10:07:19;16.10;69.50
546;DHT22;259;53.304;9.816;2023-05-20T10:21:41;16.10;69.60
546;DHT22;259;53.304;9.816;2023-05-20T10:24:08;16.10;69.60
546;DHT22;259;53.304;9.816;2023-05-20T10:26:36;16.10;69.60
546;DHT22;259;53.304;9.816;2023-05-20T10:29:13;16.10;69.60
546;DHT22;259;53.304;9.816;2023-05-20T10:31:49;16.10;69.60
546;DHT22;259;53.304;9.816;2023-05-20T10:34:18;16.20;69.70
546;DHT22;259;53.304;9.816;2023-05-20T10:39:30;16.20;69.90
546;DHT22;259;53.304;9.816;2023-05-20T10:42:09;16.30;70.00
546;DHT22;259;53.304;9.816;2023-05-20T10:44:42;16.20;69.80
546;DHT22;259;53.304;9.816;2023-05-20T10:47:09;16.20;69.70
546;DHT22;259;53.304;9.816;2023-05-20T10:49:39;16.30;69.80
546;DHT22;259;53.304;9.816;2023-05-20T10:52:09;16.20;69.70
546;DHT22;259;53.304;9.816;2023-05-20T10:54:41;16.30;69.70
546;DHT22;259;53.304;9.816;2023-05-20T10:57:09;16.30;69.80
546;DHT22;259;53.304;9.816;2023-05-20T10:59:36;16.30;69.80
546;DHT22;259;53.304;9.816;2023-05-20T11:02:02;16.30;69.80
546;DHT22;259;53.304;9.816;2023-05-20T11:04:29;16.30;69.80
546;DHT22;259;53.304;9.816;2023-05-20T11:06:55;16.30;69.80
546;DHT22;259;53.304;9.816;2023-05-20T11:09:21;16.30;69.80
546;DHT22;259;53.304;9.816;2023-05-20T11:11:48;16.30;69.80
546;DHT22;259;53.304;9.816;2023-05-20T11:14:14;16.30;69.90
546;DHT22;259;53.304;9.816;2023-05-20T11:16:42;16.30;69.80
546;DHT22;259;53.304;9.816;2023-05-20T11:19:14;16.30;69.80
546;DHT22;259;53.304;9.816;2023-05-20T11:21:47;16.30;69.90
546;DHT22;259;53.304;9.816;2023-05-20T11:24:13;16.30;69.90
546;DHT22;259;53.304;9.816;2023-05-20T11:26:46;16.30;70.00
546;DHT22;259;53.304;9.816;2023-05-20T11:29:12;16.30;70.10
546;DHT22;259;53.304;9.816;2023-05-20T11:31:38;16.30;70.00
546;DHT22;259;53.304;9.816;2023-05-20T11:34:04;16.30;70.10
546;DHT22;259;53.304;9.816;2023-05-20T11:36:30;16.30;70.10
546;DHT22;259;53.304;9.816;2023-05-20T11:38:56;16.30;70.10
546;DHT22;259;53.304;9.816;2023-05-20T11:41:24;16.30;70.20
546;DHT22;259;53.304;9.816;2023-05-20T11:44:00;16.30;70.20
546;DHT22;259;53.304;9.816;2023-05-20T11:46:26;16.30;70.20
546;DHT22;259;53.304;9.816;2023-05-20T11:48:56;16.40;70.30
546;DHT22;259;53.304;9.816;2023-05-20T11:51:29;16.40;70.30
546;DHT22;259;53.304;9.816;2023-05-20T11:54:01;16.40;70.40
546;DHT22;259;53.304;9.816;2023-05-20T11:56:32;16.40;70.40
546;DHT22;259;53.304;9.816;2023-05-20T11:59:00;16.40;70.30
546;DHT22;259;53.304;9.816;2023-05-20T12:01:29;16.40;70.30
546;DHT22;259;53.304;9.816;2023-05-20T12:04:07;16.40;70.30
546;DHT22;259;53.304;9.816;2023-05-20T12:06:34;16.40;70.20
546;DHT22;259;53.304;9.816;2023-05-20T12:09:02;16.40;70.20
546;DHT22;259;53.304;9.816;2023-05-20T12:11:35;16.40;70.20
546;DHT22;259;53.304;9.816;2023-05-20T12:14:02;16.40;70.20
546;DHT22;259;53.304;9.816;2023-05-20T12:16:30;16.40;70.20
546;DHT22;259;53.304;9.816;2023-05-20T12:18:56;16.40;70.20
546;DHT22;259;53.304;9.816;2023-05-20T12:21:22;16.40;70.20
546;DHT22;259;53.304;9.816;2023-05-20T12:23:48;16.40;70.30
546;DHT22;259;53.304;9.816;2023-05-20T12:26:13;16.50;70.40
546;DHT22;259;53.304;9.816;2023-05-20T12:28:39;16.50;70.30
546;DHT22;259;53.304;9.816;2023-05-20T12:31:05;16.40;70.10
546;DHT22;259;53.304;9.816;2023-05-20T12:33:30;16.40;70.10
546;DHT22;259;53.304;9.816;2023-05-20T12:35:56;16.50;70.30
546;DHT22;259;53.304;9.816;2023-05-20T12:38:22;16.50;70.20
546;DHT22;259;53.304;9.816;2023-05-20T12:40:48;16.50;70.30
546;DHT22;259;53.304;9.816;2023-05-20T12:43:13;16.50;70.30
546;DHT22;259;53.304;9.816;2023-05-20T12:45:39;16.50;70.30
546;DHT22;259;53.304;9.816;2023-05-20T12:48:05;16.50;70.30
546;DHT22;259;53.304;9.816;2023-05-20T12:50:32;16.50;70.50
546;DHT22;259;53.304;9.816;2023-05-20T12:52:58;16.50;70.30
546;DHT22;259;53.304;9.816;2023-05-20T12:55:23;16.50;70.30
546;DHT22;259;53.304;9.816;2023-05-20T12:57:49;16.50;70.40
546;DHT22;259;53.304;9.816;2023-05-20T13:00:15;16.50;70.50
546;DHT22;259;53.304;9.816;2023-05-20T13:02:41;16.50;70.50
546;DHT22;259;53.304;9.816;2023-05-20T13:05:08;16.60;70.70
546;DHT22;259;53.304;9.816;2023-05-20T13:07:34;16.50;70.50
546;DHT22;259;53.304;9.816;2023-05-20T13:10:00;16.60;70.60
546;DHT22;259;53.304;9.816;2023-05-20T13:12:25;16.60;70.60
546;DHT22;259;53.304;9.816;2023-05-20T13:14:51;16.60;70.60
546;DHT22;259;53.304;9.816;2023-05-20T13:17:17;16.60;70.70
546;DHT22;259;53.304;9.816;2023-05-20T13:19:43;16.60;70.50
546;DHT22;259;53.304;9.816;2023-05-20T13:22:10;16.60;70.50
546;DHT22;259;53.304;9.816;2023-05-20T13:24:36;16.60;70.60
546;DHT22;259;53.304;9.816;2023-05-20T13:27:02;16.60;70.50
546;DHT22;259;53.304;9.816;2023-05-20T13:29:29;16.70;70.60
546;DHT22;259;53.304;9.816;2023-05-20T13:31:55;16.70;70.50
546;DHT22;259;53.304;9.816;2023-05-20T13:34:20;16.70;70.60
546;DHT22;259;53.304;9.816;2023-05-20T13:36:46;16.70;72.50
546;DHT22;259;53.304;9.816;2023-05-20T13:39:16;16.80;73.00
546;DHT22;259;53.304;9.816;2023-05-20T13:41:42;16.80;71.90
546;DHT22;259;53.304;9.816;2023-05-20T13:44:07;16.80;71.80
546;DHT22;259;53.304;9.816;2023-05-20T13:46:34;16.80;71.80
546;DHT22;259;53.304;9.816;2023-05-20T13:48:59;16.80;71.80
546;DHT22;259;53.304;9.816;2023-05-20T13:51:25;16.80;71.50
546;DHT22;259;53.304;9.816;2023-05-20T13:53:51;16.80;71.50
546;DHT22;259;53.304;9.816;2023-05-20T13:56:17;16.80;71.50
546;DHT22;259;53.304;9.816;2023-05-20T13:58:43;16.80;71.60
546;DHT22;259;53.304;9.816;2023-05-20T14:01:08;16.80;71.60
546;DHT22;259;53.304;9.816;2023-05-20T14:03:36;16.80;71.50
546;DHT22;259;53.304;9.816;2023-05-20T14:06:04;16.80;71.50
546;DHT22;259;53.304;9.816;2023-05-20T14:08:30;16.80;71.50
546;DHT22;259;53.304;9.816;2023-05-20T14:10:56;16.80;71.50
546;DHT22;259;53.304;9.816;2023-05-20T14:13:22;16.80;71.50
546;DHT22;259;53.304;9.816;2023-05-20T14:15:48;16.80;71.50
546;DHT22;259;53.304;9.816;2023-05-20T14:18:15;16.80;71.50
546;DHT22;259;53.304;9.816;2023-05-20T14:20:41;16.80;71.40
546;DHT22;259;53.304;9.816;2023-05-20T14:23:07;16.80;71.30
546;DHT22;259;53.304;9.816;2023-05-20T14:25:33;16.80;71.30
546;DHT22;259;53.304;9.816;2023-05-20T14:27:59;16.90;71.20
546;DHT22;259;53.304;9.816;2023-05-20T14:30:24;16.90;71.30
546;DHT22;259;53.304;9.816;2023-05-20T14:32:50;16.90;71.40
546;DHT22;259;53.304;9.816;2023-05-20T14:35:16;16.90;71.30
546;DHT22;259;53.304;9.816;2023-05-20T14:37:43;16.90;71.30
546;DHT22;259;53.304;9.816;2023-05-20T14:40:09;16.90;71.40
546;DHT22;259;53.304;9.816;2023-05-20T14:42:36;16.90;71.40
546;DHT22;259;53.304;9.816;2023-05-20T14:45:02;16.90;71.20
546;DHT22;259;53.304;9.816;2023-05-20T14:47:28;17.00;71.50
546;DHT22;259;53.304;9.816;2023-05-20T14:49:54;17.00;71.50
546;DHT22;259;53.304;9.816;2023-05-20T14:52:20;17.10;71.30
546;DHT22;259;53.304;9.816;2023-05-20T14:54:46;17.10;71.00
546;DHT22;259;53.304;9.816;2023-05-20T14:57:12;17.10;71.10
546;DHT22;259;53.304;9.816;2023-05-20T14:59:37;17.20;71.30
546;DHT22;259;53.304;9.816;2023-05-20T15:02:03;17.20;71.00
546;DHT22;259;53.304;9.816;2023-05-20T15:04:30;17.20;71.00
546;DHT22;259;53.304;9.816;2023-05-20T15:06:56;17.20;71.00
546;DHT22;259;53.304;9.816;2023-05-20T15:09:22;17.30;71.00
546;DHT22;259;53.304;9.816;2023-05-20T15:11:47;17.30;70.80
546;DHT22;259;53.304;9.816;2023-05-20T15:14:13;17.30;70.80
546;DHT22;259;53.304;9.816;2023-05-20T15:16:39;17.30;70.70
546;DHT22;259;53.304;9.816;2023-05-20T15:19:05;17.30;70.70
546;DHT22;259;53.304;9.816;2023-05-20T15:21:30;17.30;70.70
546;DHT22;259;53.304;9.816;2023-05-20T15:23:56;17.30;70.80
546;DHT22;259;53.304;9.816;2023-05-20T15:26:25;17.30;71.00
546;DHT22;259;53.304;9.816;2023-05-20T15:28:51;17.30;70.80
546;DHT22;259;53.304;9.816;2023-05-20T15:31:16;17.30;70.70
546;DHT22;259;53.304;9.816;2023-05-20T15:33:42;17.30;70.70
546;DHT22;259;53.304;9.816;2023-05-20T15:36:08;17.30;70.80
546;DHT22;259;53.304;9.816;2023-05-20T15:38:33;17.30;70.80
546;DHT22;259;53.304;9.816;2023-05-20T15:40:59;17.30;70.80
546;DHT22;259;53.304;9.816;2023-05-20T15:43:25;17.30;70.90
546;DHT22;259;53.304;9.816;2023-05-20T15:45:50;17.30;70.90
546;DHT22;259;53.304;9.816;2023-05-20T15:48:16;17.40;71.00
546;DHT22;259;53.304;9.816;2023-05-20T15:50:42;17.40;71.30
546;DHT22;259;53.304;9.816;2023-05-20T15:53:08;17.40;71.10
546;DHT22;259;53.304;9.816;2023-05-20T15:55:34;17.40;71.10
546;DHT22;259;53.304;9.816;2023-05-20T15:58:00;17.40;71.10
546;DHT22;259;53.304;9.816;2023-05-20T16:00:26;17.40;71.20
546;DHT22;259;53.304;9.816;2023-05-20T16:02:52;17.40;71.20
546;DHT22;259;53.304;9.816;2023-05-20T16:05:21;17.40;71.20
546;DHT22;259;53.304;9.816;2023-05-20T16:07:52;17.40;71.10
546;DHT22;259;53.304;9.816;2023-05-20T16:10:19;17.40;71.00
546;DHT22;259;53.304;9.816;2023-05-20T16:12:44;17.40;71.10
546;DHT22;259;53.304;9.816;2023-05-20T16:15:11;17.40;71.20
546;DHT22;259;53.304;9.816;2023-05-20T16:17:37;17.40;71.20
546;DHT22;259;53.304;9.816;2023-05-20T16:20:03;17.40;71.40
546;DHT22;259;53.304;9.816;2023-05-20T16:22:35;17.40;71.30
546;DHT22;259;53.304;9.816;2023-05-20T16:25:01;17.40;71.50
546;DHT22;259;53.304;9.816;2023-05-20T16:27:27;17.40;71.40
546;DHT22;259;53.304;9.816;2023-05-20T16:29:53;17.40;71.40
546;DHT22;259;53.304;9.816;2023-05-20T16:32:19;17.40;71.40
546;DHT22;259;53.304;9.816;2023-05-20T16:34:46;17.40;71.50
546;DHT22;259;53.304;9.816;2023-05-20T16:37:13;17.40;71.50
546;DHT22;259;53.304;9.816;2023-05-20T16:39:39;17.40;72.30
546;DHT22;259;53.304;9.816;2023-05-20T16:42:05;17.40;71.40
546;DHT22;259;53.304;9.816;2023-05-20T16:44:33;17.40;71.30